Time;durP1;ratioP1;P1;durP2;ratioP2;P2;SDS_P1;SDS_P2;PMS_P1;PMS_P2;Temp;Humidity;BMP_temperature;BMP_pressure;BME280_temperature;BME280_humidity;BME280_pressure;Samples;Min_cycle;Max_cycle;Signal;HPM_P1;HPM_P2
2023/04/23 00:01:15;;;;;;;;;;;;;;;10.75;100.00;95225.66;5059628;28;19970;-76
2023/04/23 00:03:42;;;;;;;;;;;;;;;10.72;100.00;95226.72;5065749;28;19975;-76
2023/04/23 00:06:10;;;;;;;;;;;;;;;10.71;100.00;95224.22;5076937;28;19920;-76
2023/04/23 00:08:38;;;;;;;;;;;;;;;10.85;100.00;95227.47;5082591;28;19927;-76
2023/04/23 00:11:05;;;;;;;;;;;;;;;10.74;100.00;95229.19;5076097;28;19966;-76
2023/04/23 00:13:31;;;;;;;;;;;;;;;10.72;100.00;95231.91;5066444;28;20433;-75
2023/04/23 00:15:58;;;;;;;;;;;;;;;10.83;100.00;95226.78;5071942;28;20321;-76
2023/04/23 00:18:24;;;;;;;;;;;;;;;10.78;100.00;95231.44;5073387;28;19924;-76
2023/04/23 00:20:50;;;;;;;;;;;;;;;10.81;100.00;95227.81;5075822;28;20454;-76
2023/04/23 00:23:18;;;;;;;;;;;;;;;10.79;100.00;95235.69;5075796;28;19938;-76
2023/04/23 00:25:44;;;;;;;;;;;;;;;10.75;100.00;95242.00;5068505;28;19920;-76
2023/04/23 00:28:11;;;;;;;;;;;;;;;10.72;100.00;95251.78;5079492;28;19920;-76
2023/04/23 00:30:37;;;;;;;;;;;;;;;10.66;100.00;95248.69;5063185;28;19928;-75
2023/04/23 00:33:03;;;;;;;;;;;;;;;10.73;100.00;95256.84;5079246;28;19920;-75
2023/04/23 00:35:30;;;;;;;;;;;;;;;10.73;100.00;95256.03;5072588;28;20426;-75
2023/04/23 00:37:56;;;;;;;;;;;;;;;10.63;100.00;95266.19;5069559;28;19969;-75
2023/04/23 00:40:24;;;;;;;;;;;;;;;10.61;100.00;95266.31;5070469;28;19931;-75
2023/04/23 00:42:51;;;;;;;;;;;;;;;10.59;100.00;95263.00;5081326;28;19947;-75
2023/04/23 00:45:17;;;;;;;;;;;;;;;10.61;100.00;95268.91;5080053;28;19986;-75
2023/04/23 00:47:44;;;;;;;;;;;;;;;10.61;100.00;95265.50;5072167;28;19950;-76
2023/04/23 00:50:10;;;;;;;;;;;;;;;10.62;100.00;95269.75;5068350;28;20414;-75
2023/04/23 00:52:37;;;;;;;;;;;;;;;10.61;100.00;95268.09;5066293;28;19994;-75
2023/04/23 00:55:04;;;;;;;;;;;;;;;10.59;100.00;95262.19;5077714;28;19986;-75
2023/04/23 00:57:32;;;;;;;;;;;;;;;10.65;100.00;95259.16;5075029;28;20310;-75
2023/04/23 00:59:59;;;;;;;;;;;;;;;10.62;100.00;95262.78;5068765;28;20451;-75
2023/04/23 01:02:26;;;;;;;;;;;;;;;10.62;100.00;95261.97;5078596;28;19990;-75
2023/04/23 01:04:53;;;;;;;;;;;;;;;10.70;100.00;95264.84;5082486;28;19977;-75
2023/04/23 01:07:21;;;;;;;;;;;;;;;10.77;100.00;95260.06;5070804;28;19966;-75
2023/04/23 01:09:47;;;;;;;;;;;;;;;10.76;100.00;95261.81;5074940;28;19924;-75
2023/04/23 01:12:15;;;;;;;;;;;;;;;10.85;100.00;95261.13;5073758;28;19920;-75
2023/04/23 01:14:43;;;;;;;;;;;;;;;10.85;100.00;95261.13;5072434;28;19921;-75
2023/04/23 01:17:10;;;;;;;;;;;;;;;10.92;100.00;95251.16;5078277;28;19928;-75
2023/04/23 01:19:37;;;;;;;;;;;;;;;10.97;100.00;95258.59;5080134;28;19921;-75
2023/04/23 01:22:04;;;;;;;;;;;;;;;10.93;100.00;95264.94;5078461;28;20359;-75
2023/04/23 01:24:32;;;;;;;;;;;;;;;10.97;100.00;95266.38;5079837;28;19959;-75
2023/04/23 01:26:58;;;;;;;;;;;;;;;10.99;100.00;95267.09;5087149;28;19923;-75
2023/04/23 01:29:25;;;;;;;;;;;;;;;11.03;100.00;95271.13;5079192;28;19921;-75
2023/04/23 01:31:51;;;;;;;;;;;;;;;11.04;100.00;95267.59;5077266;28;19921;-75
2023/04/23 01:34:18;;;;;;;;;;;;;;;11.07;100.00;95270.78;5070264;28;20382;-75
2023/04/23 01:36:45;;;;;;;;;;;;;;;10.99;100.00;95269.69;5077575;28;19923;-75
2023/04/23 01:39:12;;;;;;;;;;;;;;;10.97;100.00;95274.97;5071543;28;19925;-75
2023/04/23 01:41:40;;;;;;;;;;;;;;;10.93;100.00;95275.31;5083753;28;19923;-75
2023/04/23 01:44:06;;;;;;;;;;;;;;;10.95;100.00;95273.44;5073404;28;19921;-75
2023/04/23 01:46:32;;;;;;;;;;;;;;;10.99;100.00;95269.69;5073453;28;19985;-75
2023/04/23 01:48:59;;;;;;;;;;;;;;;10.98;100.00;95265.47;5079661;28;19920;-75
2023/04/23 01:51:25;;;;;;;;;;;;;;;11.00;100.00;95272.16;5073597;28;19920;-75
2023/04/23 01:53:52;;;;;;;;;;;;;;;11.04;100.00;95278.78;5080351;28;19998;-75
2023/04/23 01:56:19;;;;;;;;;;;;;;;10.94;100.00;95271.78;5075968;28;19965;-75
2023/04/23 01:58:47;;;;;;;;;;;;;;;10.81;100.00;95272.66;5082198;28;19974;-75
2023/04/23 02:01:13;;;;;;;;;;;;;;;10.76;100.00;95268.75;5060817;28;20371;-75
2023/04/23 02:03:40;;;;;;;;;;;;;;;10.82;100.00;95271.72;5074677;28;20342;-76
2023/04/23 02:06:06;;;;;;;;;;;;;;;10.75;100.00;95273.09;5064627;28;19927;-75
2023/04/23 02:08:32;;;;;;;;;;;;;;;10.75;100.00;95278.28;5074940;28;19982;-75
2023/04/23 02:10:58;;;;;;;;;;;;;;;10.78;100.00;95269.47;5069994;28;20325;-75
2023/04/23 02:13:25;;;;;;;;;;;;;;;10.72;100.00;95273.34;5078226;28;19924;-75
2023/04/23 02:15:52;;;;;;;;;;;;;;;10.81;100.00;95271.84;5062458;28;19925;-75
2023/04/23 02:18:18;;;;;;;;;;;;;;;10.71;100.00;95276.84;5080641;28;19921;-75
2023/04/23 02:20:45;;;;;;;;;;;;;;;10.65;100.00;95285.06;5066704;28;19936;-75
2023/04/23 02:23:11;;;;;;;;;;;;;;;10.57;100.00;95279.59;5078299;28;19962;-75
2023/04/23 02:25:38;;;;;;;;;;;;;;;10.55;100.00;95284.88;5077068;28;20023;-75
2023/04/23 02:28:06;;;;;;;;;;;;;;;10.56;100.00;95278.75;5071839;28;19974;-75
2023/04/23 02:30:32;;;;;;;;;;;;;;;10.47;100.00;95278.59;5071381;28;20299;-75
2023/04/23 02:33:00;;;;;;;;;;;;;;;10.48;100.00;95277.66;5082806;28;19920;-75
2023/04/23 02:35:26;;;;;;;;;;;;;;;10.53;100.00;95270.38;5069693;28;19925;-75
2023/04/23 02:37:53;;;;;;;;;;;;;;;10.52;100.00;95272.13;5065044;28;19977;-75
2023/04/23 02:40:19;;;;;;;;;;;;;;;10.49;100.00;95268.94;5069081;28;20031;-75
2023/04/23 02:42:45;;;;;;;;;;;;;;;10.54;100.00;95269.47;5075196;28;19928;-75
2023/04/23 02:45:11;;;;;;;;;;;;;;;10.56;100.00;95267.56;5072812;28;19950;-75
2023/04/23 02:47:38;;;;;;;;;;;;;;;10.57;100.00;95270.06;5068583;28;20349;-75
2023/04/23 02:50:06;;;;;;;;;;;;;;;10.59;100.00;95268.19;5078692;28;19973;-75
2023/04/23 02:52:33;;;;;;;;;;;;;;;10.51;100.00;95270.50;5071715;28;19928;-75
2023/04/23 02:55:00;;;;;;;;;;;;;;;10.48;100.00;95270.69;5083847;28;19927;-75
2023/04/23 02:57:27;;;;;;;;;;;;;;;10.58;100.00;95263.94;5074730;28;20406;-75
2023/04/23 02:59:53;;;;;;;;;;;;;;;10.63;100.00;95267.03;5072277;28;20344;-75
2023/04/23 03:02:19;;;;;;;;;;;;;;;10.60;100.00;95267.25;5073461;28;20010;-75
2023/04/23 03:04:45;;;;;;;;;;;;;;;10.65;100.00;95270.34;5070201;28;20439;-75
2023/04/23 03:07:16;;;;;;;;;;;;;;;10.54;100.00;95265.09;5076593;28;19930;-75
2023/04/23 03:09:42;;;;;;;;;;;;;;;10.63;100.00;95261.03;5076731;28;20027;-75
2023/04/23 03:12:08;;;;;;;;;;;;;;;10.67;100.00;95267.63;5079590;28;19969;-75
2023/04/23 03:14:35;;;;;;;;;;;;;;;10.66;100.00;95258.22;5067913;28;20345;-75
2023/04/23 03:17:01;;;;;;;;;;;;;;;10.69;100.00;95263.19;5083217;28;20011;-75
2023/04/23 03:19:27;;;;;;;;;;;;;;;10.66;100.00;95269.41;5074372;28;20140;-75
2023/04/23 03:21:54;;;;;;;;;;;;;;;10.62;100.00;95272.31;5077948;28;20374;-75
2023/04/23 03:24:22;;;;;;;;;;;;;;;10.51;100.00;95267.09;5068837;28;19931;-75
2023/04/23 03:26:48;;;;;;;;;;;;;;;10.59;100.00;95272.53;5066219;28;20378;-75
2023/04/23 03:29:14;;;;;;;;;;;;;;;10.57;100.00;95269.25;5066256;28;19920;-76
2023/04/23 03:31:40;;;;;;;;;;;;;;;10.56;100.00;95283.09;5074270;28;19920;-75
2023/04/23 03:34:07;;;;;;;;;;;;;;;10.34;100.00;95278.59;5077012;28;19920;-75
2023/04/23 03:36:33;;;;;;;;;;;;;;;10.33;100.00;95282.97;5076116;28;19950;-75
2023/04/23 03:39:01;;;;;;;;;;;;;;;10.40;100.00;95285.94;5067878;28;19924;-75
2023/04/23 03:41:28;;;;;;;;;;;;;;;10.39;100.00;95273.94;5078159;28;19927;-75
2023/04/23 03:43:54;;;;;;;;;;;;;;;10.38;100.00;95285.22;5070502;28;19920;-75
2023/04/23 03:46:21;;;;;;;;;;;;;;;10.25;100.00;95279.22;5065030;28;19975;-76
2023/04/23 03:48:47;;;;;;;;;;;;;;;10.16;100.00;95281.53;5072546;28;20458;-75
2023/04/23 03:51:13;;;;;;;;;;;;;;;10.07;100.00;95279.53;5071629;28;20306;-75
2023/04/23 03:53:39;;;;;;;;;;;;;;;10.12;100.00;95284.41;5084272;28;19972;-75
2023/04/23 03:56:06;;;;;;;;;;;;;;;10.06;100.00;95279.66;5074482;28;19924;-75
2023/04/23 03:58:33;;;;;;;;;;;;;;;9.98;100.00;95280.19;5069837;28;19978;-75
2023/04/23 04:01:00;;;;;;;;;;;;;;;10.01;100.00;95286.91;5075239;28;19920;-75
2023/04/23 04:03:26;;;;;;;;;;;;;;;10.04;100.00;95282.34;5066487;28;19921;-75
2023/04/23 04:05:52;;;;;;;;;;;;;;;10.10;100.00;95286.28;5078955;28;20383;-75
2023/04/23 04:08:18;;;;;;;;;;;;;;;10.11;100.00;95286.16;5070062;28;19928;-75
2023/04/23 04:10:45;;;;;;;;;;;;;;;10.05;100.00;95281.44;5068836;28;19920;-75
2023/04/23 04:13:11;;;;;;;;;;;;;;;10.07;100.00;95276.97;5072003;28;19921;-75
2023/04/23 04:15:38;;;;;;;;;;;;;;;10.04;100.00;95281.53;5070826;28;19928;-75
2023/04/23 04:18:05;;;;;;;;;;;;;;;9.99;100.00;95287.00;5075453;28;19920;-75
2023/04/23 04:20:32;;;;;;;;;;;;;;;9.98;100.00;95287.13;5071769;28;19960;-75
2023/04/23 04:22:58;;;;;;;;;;;;;;;9.88;100.00;95281.75;5075179;28;19927;-75
2023/04/23 04:25:24;;;;;;;;;;;;;;;9.92;100.00;95290.94;5069089;28;19921;-75
2023/04/23 04:27:50;;;;;;;;;;;;;;;9.92;100.00;95284.00;5075443;28;19924;-75
2023/04/23 04:30:17;;;;;;;;;;;;;;;10.02;100.00;95283.41;5069969;28;19925;-75
2023/04/23 04:32:45;;;;;;;;;;;;;;;10.03;100.00;95272.94;5059610;28;19919;-75
2023/04/23 04:35:11;;;;;;;;;;;;;;;9.95;100.00;95280.41;5075040;28;19924;-75
2023/04/23 04:37:38;;;;;;;;;;;;;;;9.96;100.00;95279.44;5071332;28;20311;-75
2023/04/23 04:40:07;;;;;;;;;;;;;;;9.79;100.00;95285.78;5074147;28;20314;-75
2023/04/23 04:42:33;;;;;;;;;;;;;;;9.81;100.00;95276.16;5061205;28;20003;-75
2023/04/23 04:44:59;;;;;;;;;;;;;;;9.82;100.00;95277.78;5063786;28;19978;-75
2023/04/23 04:47:25;;;;;;;;;;;;;;;9.94;100.00;95277.00;5058570;28;19928;-75
2023/04/23 04:49:56;;;;;;;;;;;;;;;10.00;100.00;95275.72;5077499;28;20080;-75
2023/04/23 04:52:22;;;;;;;;;;;;;;;10.04;100.00;95284.09;5072838;28;19924;-75
2023/04/23 04:54:48;;;;;;;;;;;;;;;10.06;100.00;95279.66;5075060;28;20283;-75
2023/04/23 04:57:15;;;;;;;;;;;;;;;10.07;100.00;95276.97;5066554;28;20279;-75
2023/04/23 04:59:41;;;;;;;;;;;;;;;10.10;100.00;95278.53;5067925;28;19926;-75
2023/04/23 05:02:07;;;;;;;;;;;;;;;10.09;100.00;95271.69;5079541;28;19924;-76
2023/04/23 05:04:34;;;;;;;;;;;;;;;10.08;100.00;95273.44;5066093;28;20340;-76
2023/04/23 05:07:01;;;;;;;;;;;;;;;10.09;100.00;95271.69;5088013;28;19924;-75
2023/04/23 05:09:27;;;;;;;;;;;;;;;10.01;100.00;95271.38;5060824;28;19931;-76
2023/04/23 05:11:54;;;;;;;;;;;;;;;10.07;100.00;95270.97;5088792;28;19920;-76
2023/04/23 05:14:20;;;;;;;;;;;;;;;10.06;100.00;95270.13;5080630;28;19920;-76
2023/04/23 05:16:47;;;;;;;;;;;;;;;10.15;100.00;95272.09;5067903;28;20397;-75
2023/04/23 05:19:13;;;;;;;;;;;;;;;10.24;100.00;95275.00;5071939;28;19981;-75
2023/04/23 05:21:40;;;;;;;;;;;;;;;10.31;100.00;95271.91;5072646;28;19924;-75
2023/04/23 05:24:07;;;;;;;;;;;;;;;10.38;100.00;95274.88;5061174;28;19921;-75
2023/04/23 05:26:34;;;;;;;;;;;;;;;10.43;100.00;95270.22;5074071;28;19920;-76
2023/04/23 05:29:00;;;;;;;;;;;;;;;10.48;100.00;95277.66;5077909;28;19931;-76
2023/04/23 05:31:26;;;;;;;;;;;;;;;10.50;100.00;95288.75;5073749;28;19920;-77
2023/04/23 05:33:53;;;;;;;;;;;;;;;10.45;100.00;95278.69;5072131;28;20294;-76
2023/04/23 05:36:19;;;;;;;;;;;;;;;10.53;100.00;95289.34;5070571;28;20298;-76
2023/04/23 05:38:47;;;;;;;;;;;;;;;10.52;100.00;95285.09;5079100;28;19942;-76
2023/04/23 05:41:14;;;;;;;;;;;;;;;10.51;100.00;95280.84;5075016;28;19947;-76
2023/04/23 05:43:41;;;;;;;;;;;;;;;10.56;100.00;95283.94;5074688;28;20294;-77
2023/04/23 05:46:07;;;;;;;;;;;;;;;10.58;100.00;95284.66;5068596;28;19931;-75
2023/04/23 05:48:33;;;;;;;;;;;;;;;10.72;100.00;95282.88;5072663;28;19924;-75
2023/04/23 05:51:00;;;;;;;;;;;;;;;10.76;100.00;95273.94;5074069;28;19966;-75
2023/04/23 05:53:26;;;;;;;;;;;;;;;10.83;100.00;95272.56;5073548;28;20334;-75
2023/04/23 05:55:52;;;;;;;;;;;;;;;10.98;100.00;95278.41;5065998;28;19956;-75
2023/04/23 05:58:20;;;;;;;;;;;;;;;11.04;100.00;95273.59;5064795;28;19967;-75
2023/04/23 06:00:46;;;;;;;;;;;;;;;10.95;100.00;95276.03;5078987;28;19921;-75
2023/04/23 06:03:13;;;;;;;;;;;;;;;11.12;100.00;95273.88;5066266;28;19920;-75
2023/04/23 06:05:41;;;;;;;;;;;;;;;11.36;100.00;95281.63;5075545;28;20383;-75
2023/04/23 06:08:08;;;;;;;;;;;;;;;11.51;100.00;95276.25;5073564;28;19920;-76
2023/04/23 06:10:34;;;;;;;;;;;;;;;11.56;100.00;95287.09;5079843;28;19920;-76
2023/04/23 06:13:01;;;;;;;;;;;;;;;11.74;100.00;95277.94;5076419;28;20340;-75
2023/04/23 06:15:28;;;;;;;;;;;;;;;11.74;100.00;95277.94;5064720;28;19924;-76
2023/04/23 06:17:54;;;;;;;;;;;;;;;11.82;100.00;95280.78;5071536;28;19920;-75
2023/04/23 06:20:21;;;;;;;;;;;;;;;11.86;100.00;95279.66;5063760;28;19925;-75
2023/04/23 06:22:47;;;;;;;;;;;;;;;11.81;100.00;95284.31;5067439;28;19977;-75
2023/04/23 06:25:13;;;;;;;;;;;;;;;11.97;100.00;95271.03;5064225;28;19921;-75
2023/04/23 06:27:39;;;;;;;;;;;;;;;12.00;100.00;95277.75;5077345;28;19921;-76
2023/04/23 06:30:06;;;;;;;;;;;;;;;11.99;100.00;95273.53;5063903;28;20444;-76
2023/04/23 06:32:34;;;;;;;;;;;;;;;12.26;100.00;95271.41;5070222;28;19921;-75
2023/04/23 06:35:00;;;;;;;;;;;;;;;12.42;100.00;95265.84;5077253;28;19938;-76
2023/04/23 06:37:29;;;;;;;;;;;;;;;12.49;100.00;95264.41;5065490;28;20457;-75
2023/04/23 06:39:55;;;;;;;;;;;;;;;12.25;100.00;95261.97;5068174;28;20294;-75
2023/04/23 06:42:22;;;;;;;;;;;;;;;12.71;100.00;95260.94;5076115;28;20358;-75
2023/04/23 06:44:48;;;;;;;;;;;;;;;12.84;100.00;95263.41;5077299;28;19920;-75
2023/04/23 06:47:14;;;;;;;;;;;;;;;12.95;100.00;95265.97;5064991;28;19981;-75
2023/04/23 06:49:42;;;;;;;;;;;;;;;13.34;100.00;95273.28;5065374;28;19932;-75
2023/04/23 06:52:08;;;;;;;;;;;;;;;13.51;100.00;95270.16;5075510;28;19919;-75
2023/04/23 06:54:34;;;;;;;;;;;;;;;13.46;100.00;95265.34;5074901;28;19966;-75
2023/04/23 06:57:01;;;;;;;;;;;;;;;13.29;100.00;95271.91;5081197;28;19931;-75
2023/04/23 06:59:27;;;;;;;;;;;;;;;12.81;100.00;95271.44;5075905;28;19994;-75
2023/04/23 07:01:54;;;;;;;;;;;;;;;13.10;100.00;95268.28;5075549;28;19920;-75
2023/04/23 07:04:20;;;;;;;;;;;;;;;13.08;100.00;95264.03;5073598;28;19921;-76
2023/04/23 07:06:47;;;;;;;;;;;;;;;13.06;100.00;95265.94;5083155;28;19924;-75
2023/04/23 07:09:14;;;;;;;;;;;;;;;12.96;100.00;95261.59;5062475;28;20486;-75
2023/04/23 07:11:40;;;;;;;;;;;;;;;12.93;100.00;95261.84;5069506;28;20260;-76
2023/04/23 07:14:06;;;;;;;;;;;;;;;13.03;100.00;95258.38;5076928;28;19973;-75
2023/04/23 07:16:33;;;;;;;;;;;;;;;13.30;100.00;95259.72;5065249;28;19971;-76
2023/04/23 07:19:00;;;;;;;;;;;;;;;13.47;100.00;95264.38;5065012;28;19920;-76
2023/04/23 07:21:27;;;;;;;;;;;;;;;13.88;100.00;95257.50;5070314;28;20472;-75
2023/04/23 07:23:55;;;;;;;;;;;;;;;14.09;100.00;95254.03;5076116;28;20009;-76
2023/04/23 07:26:21;;;;;;;;;;;;;;;14.32;100.00;95252.09;5072823;28;19928;-76
2023/04/23 07:28:49;;;;;;;;;;;;;;;14.56;100.00;95249.16;5079333;28;19924;-75
2023/04/23 07:31:15;;;;;;;;;;;;;;;13.97;100.00;95254.09;5079860;28;19966;-76
2023/04/23 07:33:42;;;;;;;;;;;;;;;14.41;100.00;95248.69;5079151;28;20406;-76
2023/04/23 07:36:08;;;;;;;;;;;;;;;13.85;100.00;95247.34;5073844;28;19929;-76
2023/04/23 07:38:34;;;;;;;;;;;;;;;13.61;100.00;95250.22;5068541;28;20625;-76
2023/04/23 07:41:02;;;;;;;;;;;;;;;13.72;100.00;95244.97;5074552;28;20371;-76
2023/04/23 07:43:28;;;;;;;;;;;;;;;14.17;100.00;95234.22;5075903;28;19925;-75
2023/04/23 07:45:54;;;;;;;;;;;;;;;14.14;100.00;95238.84;5070078;28;19920;-76
2023/04/23 07:48:20;;;;;;;;;;;;;;;14.53;100.00;95234.59;5070737;28;19920;-75
2023/04/23 07:50:47;;;;;;;;;;;;;;;14.21;100.00;95230.38;5065640;28;19924;-76
2023/04/23 07:53:13;;;;;;;;;;;;;;;14.44;100.00;95219.75;5077891;28;20367;-76
2023/04/23 07:55:40;;;;;;;;;;;;;;;15.09;100.00;95222.75;5077727;28;20354;-76
2023/04/23 07:58:07;;;;;;;;;;;;;;;15.41;100.00;95217.25;5072115;28;20425;-76
2023/04/23 08:00:33;;;;;;;;;;;;;;;15.35;100.00;95223.00;5071299;28;19925;-75
2023/04/23 08:03:00;;;;;;;;;;;;;;;15.41;100.00;95217.25;5066401;28;20027;-75
2023/04/23 08:05:26;;;;;;;;;;;;;;;15.17;100.00;95222.91;5077731;28;19920;-75
2023/04/23 08:07:52;;;;;;;;;;;;;;;15.32;100.00;95220.69;5077663;28;20011;-75
2023/04/23 08:10:19;;;;;;;;;;;;;;;15.19;100.00;95219.19;5081555;28;19950;-75
2023/04/23 08:12:45;;;;;;;;;;;;;;;14.60;100.00;95214.06;5081491;28;20423;-75
2023/04/23 08:15:13;;;;;;;;;;;;;;;15.17;100.00;95213.28;5070793;28;19920;-75
2023/04/23 08:17:39;;;;;;;;;;;;;;;15.04;100.00;95212.72;5076129;28;19921;-75
2023/04/23 08:20:07;;;;;;;;;;;;;;;14.55;100.00;95201.44;5074352;28;19920;-75
2023/04/23 08:22:33;;;;;;;;;;;;;;;15.07;95.42;95203.81;5080376;28;19928;-75
2023/04/23 08:24:59;;;;;;;;;;;;;;;15.52;93.00;95201.44;5075136;28;19924;-75
2023/04/23 08:27:26;;;;;;;;;;;;;;;15.79;85.62;95203.31;5079520;28;20289;-75
2023/04/23 08:29:52;;;;;;;;;;;;;;;16.00;82.75;95203.13;5067986;28;19928;-75
2023/04/23 08:32:20;;;;;;;;;;;;;;;16.01;84.46;95202.16;5067096;28;19925;-75
2023/04/23 08:34:46;;;;;;;;;;;;;;;15.94;85.80;95201.91;5070213;28;19960;-76
2023/04/23 08:37:12;;;;;;;;;;;;;;;16.20;82.99;95202.09;5067447;28;19929;-77
2023/04/23 08:39:38;;;;;;;;;;;;;;;16.45;79.42;95204.97;5070214;28;19950;-76
2023/04/23 08:42:09;;;;;;;;;;;;;;;15.75;78.63;95193.31;5059172;28;19921;-76
2023/04/23 08:44:37;;;;;;;;;;;;;;;15.95;80.47;95189.69;5069005;28;20357;-75
2023/04/23 08:47:05;;;;;;;;;;;;;;;15.77;81.97;95192.22;5081888;28;20482;-77
2023/04/23 08:49:33;;;;;;;;;;;;;;;15.75;77.95;95190.69;5077254;28;20016;-76
2023/04/23 08:52:06;;;;;;;;;;;;;;;15.37;79.62;95195.81;5055565;28;19920;-76
2023/04/23 08:54:34;;;;;;;;;;;;;;;15.32;79.67;95190.22;5059338;28;19932;-76
2023/04/23 08:57:00;;;;;;;;;;;;;;;14.90;80.30;95193.09;5077151;28;19920;-76
2023/04/23 08:59:29;;;;;;;;;;;;;;;14.74;82.04;95187.59;5067306;28;19966;-76
2023/04/23 09:01:56;;;;;;;;;;;;;;;14.25;83.44;95191.88;5085674;28;19924;-76
2023/04/23 09:04:24;;;;;;;;;;;;;;;14.45;81.87;95182.31;5057870;28;19928;-75
2023/04/23 09:06:52;;;;;;;;;;;;;;;14.38;80.86;95184.63;5062032;28;20594;-76
2023/04/23 09:09:22;;;;;;;;;;;;;;;14.81;80.83;95182.69;5060566;28;20387;-75
2023/04/23 09:11:48;;;;;;;;;;;;;;;15.01;80.37;95177.31;5072498;28;19926;-76
2023/04/23 09:14:16;;;;;;;;;;;;;;;15.00;76.86;95177.47;5063285;28;19921;-76
2023/04/23 09:16:43;;;;;;;;;;;;;;;14.73;79.17;95172.94;5071467;28;19974;-75
2023/04/23 09:19:09;;;;;;;;;;;;;;;14.79;77.49;95176.75;5063331;28;19921;-76
2023/04/23 09:21:36;;;;;;;;;;;;;;;14.88;78.90;95168.13;5065436;28;19921;-75
2023/04/23 09:24:05;;;;;;;;;;;;;;;15.50;77.28;95161.63;5060161;28;19928;-76
2023/04/23 09:26:32;;;;;;;;;;;;;;;15.87;76.69;95161.66;5065425;28;20118;-76
2023/04/23 09:28:58;;;;;;;;;;;;;;;16.41;71.37;95165.25;5078958;28;19928;-76
2023/04/23 09:31:24;;;;;;;;;;;;;;;16.72;70.85;95159.66;5077266;28;19966;-76
2023/04/23 09:33:52;;;;;;;;;;;;;;;16.79;67.10;95165.16;5069060;28;19966;-76
2023/04/23 09:36:20;;;;;;;;;;;;;;;16.91;69.29;95164.00;5077044;28;19920;-76
2023/04/23 09:38:46;;;;;;;;;;;;;;;16.69;65.17;95154.75;5070750;28;20278;-76
2023/04/23 09:41:24;;;;;;;;;;;;;;;16.47;67.45;95148.16;5074673;28;19924;-75
2023/04/23 09:43:52;;;;;;;;;;;;;;;16.63;69.40;95150.09;5074415;28;20352;-76
2023/04/23 09:46:19;;;;;;;;;;;;;;;16.69;65.69;95139.06;5064206;28;20342;-76
2023/04/23 09:48:46;;;;;;;;;;;;;;;16.85;66.09;95144.47;5082052;28;19920;-76
2023/04/23 09:51:13;;;;;;;;;;;;;;;17.05;69.28;95133.84;5074072;28;19947;-76
2023/04/23 09:53:41;;;;;;;;;;;;;;;17.03;66.73;95141.84;5085515;28;19924;-75
2023/04/23 09:56:07;;;;;;;;;;;;;;;17.14;67.61;95131.16;5075580;28;20003;-76
2023/04/23 09:58:35;;;;;;;;;;;;;;;17.26;68.23;95131.72;5074490;28;20379;-75
2023/04/23 10:01:06;;;;;;;;;;;;;;;17.02;63.95;95128.91;5076084;28;19932;-75
2023/04/23 10:03:32;;;;;;;;;;;;;;;17.12;64.52;95130.47;5069286;28;19928;-76
2023/04/23 10:05:58;;;;;;;;;;;;;;;17.13;66.39;95126.03;5077983;28;19978;-76
2023/04/23 10:08:25;;;;;;;;;;;;;;;17.08;64.24;95120.47;5073667;28;19935;-76
2023/04/23 10:10:51;;;;;;;;;;;;;;;17.18;65.27;95116.78;5083430;28;20438;-76
2023/04/23 10:13:18;;;;;;;;;;;;;;;17.25;65.16;95108.31;5071449;28;19921;-76
2023/04/23 10:15:47;;;;;;;;;;;;;;;17.52;63.18;95105.53;5081917;28;19998;-76
2023/04/23 10:18:15;;;;;;;;;;;;;;;17.34;62.13;95108.22;5070835;28;19920;-76
2023/04/23 10:20:42;;;;;;;;;;;;;;;17.66;59.79;95104.97;5082715;28;19924;-76
2023/04/23 10:23:08;;;;;;;;;;;;;;;17.16;63.74;95102.19;5072077;28;19977;-76
2023/04/23 10:25:35;;;;;;;;;;;;;;;16.83;63.63;95101.13;5070976;28;19921;-76
2023/04/23 10:28:02;;;;;;;;;;;;;;;17.08;65.56;95104.75;5083689;28;19923;-76
2023/04/23 10:30:29;;;;;;;;;;;;;;;17.65;60.12;95097.28;5077496;28;20518;-76
2023/04/23 10:33:00;;;;;;;;;;;;;;;17.47;59.90;95088.69;5074923;28;19973;-76
2023/04/23 10:35:26;;;;;;;;;;;;;;;17.63;59.48;95093.97;5078316;28;19925;-76
2023/04/23 10:37:53;;;;;;;;;;;;;;;17.64;62.64;95085.13;5074712;28;19924;-77
2023/04/23 10:40:21;;;;;;;;;;;;;;;17.71;62.34;95077.50;5078698;28;19921;-76
2023/04/23 10:42:48;;;;;;;;;;;;;;;18.04;60.59;95075.84;5072751;28;19974;-76
2023/04/23 10:45:15;;;;;;;;;;;;;;;18.17;59.23;95070.13;5081910;28;19973;-76
2023/04/23 10:47:45;;;;;;;;;;;;;;;18.18;56.25;95075.25;5077625;28;20007;-76
2023/04/23 10:50:19;;;;;;;;;;;;;;;17.85;58.01;95077.75;5081421;28;19931;-75
2023/04/23 10:52:50;;;;;;;;;;;;;;;17.82;58.48;95070.19;5076488;28;20423;-75
2023/04/23 10:55:16;;;;;;;;;;;;;;;17.92;59.45;95070.09;5080607;28;19927;-76
2023/04/23 10:57:55;;;;;;;;;;;;;;;18.22;60.72;95058.22;5075182;28;19949;-76
2023/04/23 11:00:21;;;;;;;;;;;;;;;17.63;60.34;95067.78;5075496;28;19970;-76
2023/04/23 11:02:47;;;;;;;;;;;;;;;17.96;59.88;95066.16;5065715;28;19936;-77
2023/04/23 11:05:16;;;;;;;;;;;;;;;18.04;58.55;95058.31;5079957;28;19924;-76
2023/04/23 11:08:01;;;;;;;;;;;;;;;17.79;58.82;95065.28;5082002;28;19928;-76
2023/04/23 11:10:27;;;;;;;;;;;;;;;17.54;59.53;95061.72;5077460;28;19943;-76
2023/04/23 11:12:55;;;;;;;;;;;;;;;17.27;60.50;95046.16;5067401;28;19965;-76
2023/04/23 11:15:21;;;;;;;;;;;;;;;16.91;60.10;95044.50;5067526;28;19928;-76
2023/04/23 11:18:01;;;;;;;;;;;;;;;16.91;63.35;95046.28;5061696;28;20378;-76
2023/04/23 11:20:27;;;;;;;;;;;;;;;17.51;60.62;95046.31;5072526;28;19924;-77
2023/04/23 11:22:55;;;;;;;;;;;;;;;17.70;60.72;95040.00;5081882;28;20333;-76
2023/04/23 11:25:22;;;;;;;;;;;;;;;17.28;61.21;95037.34;5068680;28;19921;-76
2023/04/23 11:27:49;;;;;;;;;;;;;;;17.35;63.03;95028.72;5081045;28;19928;-76
2023/04/23 11:30:16;;;;;;;;;;;;;;;17.73;62.01;95031.03;5073211;28;20371;-76
2023/04/23 11:32:44;;;;;;;;;;;;;;;17.81;59.54;95024.03;5076540;28;19928;-76
2023/04/23 11:35:13;;;;;;;;;;;;;;;17.81;61.22;95018.81;5058237;28;19920;-75
2023/04/23 11:37:40;;;;;;;;;;;;;;;17.81;62.44;95012.75;5068455;28;19921;-75
2023/04/23 11:40:09;;;;;;;;;;;;;;;17.73;62.25;95010.88;5062973;28;19931;-76
2023/04/23 11:42:41;;;;;;;;;;;;;;;17.56;60.04;95017.03;5060282;28;19927;-76
2023/04/23 11:45:07;;;;;;;;;;;;;;;17.48;62.19;95003.91;5062858;28;20076;-76
2023/04/23 11:47:34;;;;;;;;;;;;;;;17.44;60.15;94999.97;5063038;28;19924;-76
2023/04/23 11:50:01;;;;;;;;;;;;;;;17.25;61.59;94998.41;5065368;28;20272;-75
2023/04/23 11:52:27;;;;;;;;;;;;;;;17.09;61.93;94992.13;5071030;28;19928;-75
2023/04/23 11:54:53;;;;;;;;;;;;;;;17.35;65.77;94984.25;5073254;28;19981;-76
2023/04/23 11:57:22;;;;;;;;;;;;;;;17.83;65.95;94993.25;5077930;28;19974;-75
2023/04/23 11:59:48;;;;;;;;;;;;;;;18.28;63.55;94986.81;5071736;28;19927;-75
2023/04/23 12:02:15;;;;;;;;;;;;;;;18.44;59.62;94972.06;5079136;28;19965;-76
2023/04/23 12:04:43;;;;;;;;;;;;;;;18.47;58.91;94975.19;5065793;28;20008;-77
2023/04/23 12:07:09;;;;;;;;;;;;;;;18.38;58.44;94970.91;5078771;28;20369;-76
2023/04/23 12:09:37;;;;;;;;;;;;;;;18.21;58.06;94964.84;5062033;28;19927;-75
2023/04/23 12:12:03;;;;;;;;;;;;;;;18.63;62.08;94953.38;5070710;28;20047;-76
2023/04/23 12:14:32;;;;;;;;;;;;;;;18.59;59.93;94952.06;5071234;28;19924;-76
2023/04/23 12:16:59;;;;;;;;;;;;;;;18.69;57.69;94950.09;5069329;28;19954;-76
2023/04/23 12:19:29;;;;;;;;;;;;;;;18.83;57.86;94944.16;5073533;28;19921;-75
2023/04/23 12:21:56;;;;;;;;;;;;;;;18.63;58.69;94933.19;5065832;28;19925;-74
2023/04/23 12:24:23;;;;;;;;;;;;;;;18.32;58.52;94935.69;5066773;28;19928;-75
2023/04/23 12:26:53;;;;;;;;;;;;;;;18.59;59.79;94931.09;5080597;28;19924;-75
2023/04/23 12:29:19;;;;;;;;;;;;;;;18.64;58.64;94936.63;5083291;28;19924;-77
2023/04/23 12:31:47;;;;;;;;;;;;;;;18.48;57.23;94926.19;5076598;28;20300;-76
2023/04/23 12:34:15;;;;;;;;;;;;;;;18.42;56.29;94926.81;5075996;28;19932;-75
2023/04/23 12:36:44;;;;;;;;;;;;;;;18.36;57.72;94926.50;5079340;28;21283;-76
2023/04/23 12:39:23;;;;;;;;;;;;;;;18.62;56.51;94923.69;5076611;28;19919;-75